createdAt,value
2022-08-31T07:57:07.119Z,27.32
2022-08-31T07:57:22.073Z,27.32
2022-08-31T07:57:37.721Z,27.32
2022-08-31T07:57:53.641Z,27.32
2022-08-31T07:58:08.551Z,27.32
2022-08-31T07:58:24.822Z,27.32
2022-08-31T07:58:40.604Z,27.32
2022-08-31T07:58:56.642Z,27.32
2022-08-31T07:59:12.501Z,27.32
2022-08-31T07:59:28.258Z,27.32
2022-08-31T07:59:45.092Z,27.32
2022-08-31T08:00:00.250Z,27.32
2022-08-31T08:00:17.391Z,27.32
2022-08-31T08:00:33.860Z,27.32
2022-08-31T08:00:50.308Z,27.32
2022-08-31T08:01:08.126Z,27.32
2022-08-31T08:01:22.676Z,27.33
2022-08-31T08:01:37.813Z,27.33
2022-08-31T08:01:54.798Z,27.32
2022-08-31T08:02:17.095Z,27.32
2022-08-31T08:02:25.243Z,27.32
2022-08-31T08:02:43.009Z,27.32
2022-08-31T08:02:56.940Z,27.32
2022-08-31T08:03:13.168Z,27.32
2022-08-31T08:03:28.232Z,27.32
2022-08-31T08:03:45.723Z,27.32
2022-08-31T08:04:03.673Z,27.32
2022-08-31T08:04:16.200Z,27.32
2022-08-31T08:04:33.216Z,27.32
2022-08-31T08:04:48.209Z,27.32
2022-08-31T08:05:04.908Z,27.32
2022-08-31T08:05:21.442Z,27.32
2022-08-31T08:05:37.431Z,27.32
2022-08-31T08:05:53.963Z,27.32
2022-08-31T08:06:09.381Z,27.32
2022-08-31T08:06:24.498Z,27.31
2022-08-31T08:06:41.013Z,27.31
2022-08-31T08:06:57.149Z,27.31
2022-08-31T08:07:13.333Z,27.31
2022-08-31T08:07:28.652Z,27.3
2022-08-31T08:07:46.144Z,27.3
2022-08-31T08:08:00.985Z,27.3
2022-08-31T08:08:21.175Z,27.3
2022-08-31T08:08:34.685Z,27.3
2022-08-31T08:09:12.704Z,27.3
2022-08-31T08:09:22.249Z,27.3
2022-08-31T08:09:24.443Z,27.3
2022-08-31T08:09:36.333Z,27.29
2022-08-31T08:09:52.271Z,27.29
2022-08-31T08:10:07.826Z,27.29
2022-08-31T08:10:25.101Z,27.28
2022-08-31T08:10:41.590Z,27.28
2022-08-31T08:10:58.199Z,27.27
2022-08-31T08:11:12.226Z,27.27
2022-08-31T08:11:29.238Z,27.27
2022-08-31T08:11:44.899Z,27.27
2022-08-31T08:12:04.247Z,27.27
2022-08-31T08:12:16.897Z,27.27
2022-08-31T08:12:31.701Z,27.26
2022-08-31T08:12:48.735Z,27.25
2022-08-31T08:13:05.727Z,27.25
2022-08-31T08:13:21.234Z,27.25
2022-08-31T08:13:36.504Z,27.25
2022-08-31T08:13:53.240Z,27.25
2022-08-31T08:14:11.733Z,27.24
2022-08-31T08:14:27.184Z,27.24
2022-08-31T08:14:43.338Z,27.23
2022-08-31T08:14:57.608Z,27.23
2022-08-31T08:15:12.780Z,27.23
2022-08-31T08:15:28.253Z,27.23
2022-08-31T08:15:44.516Z,27.23
2022-08-31T08:16:01.015Z,27.22
2022-08-31T08:16:16.696Z,27.22
2022-08-31T08:16:32.510Z,27.21
2022-08-31T08:16:51.941Z,27.21
2022-08-31T08:17:07.289Z,27.21
2022-08-31T08:17:36.310Z,27.21
2022-08-31T08:17:51.560Z,27.2
2022-08-31T08:18:10.761Z,27.2
2022-08-31T08:18:23.599Z,27.2
2022-08-31T08:18:40.636Z,27.2
2022-08-31T08:18:57.177Z,27.2
2022-08-31T08:19:13.987Z,27.2
2022-08-31T08:19:29.601Z,27.2
2022-08-31T08:19:46.213Z,27.2
2022-08-31T08:20:00.805Z,27.2
2022-08-31T08:20:16.852Z,27.19
2022-08-31T08:20:37.713Z,27.19
2022-08-31T08:20:48.165Z,27.19
2022-08-31T08:21:05.922Z,27.18
2022-08-31T08:21:20.351Z,27.18
2022-08-31T08:21:36.399Z,27.18
2022-08-31T08:21:52.421Z,27.18
2022-08-31T08:22:08.810Z,27.18
2022-08-31T08:22:48.419Z,27.18
2022-08-31T08:22:54.185Z,27.18
2022-08-31T08:22:57.872Z,27.18
2022-08-31T08:23:13.726Z,27.18
2022-08-31T08:23:29.199Z,27.18
2022-08-31T08:23:45.539Z,27.18
2022-08-31T08:24:01.759Z,27.18
2022-08-31T08:24:16.598Z,27.17
2022-08-31T08:24:51.076Z,27.17
2022-08-31T08:25:04.586Z,27.17
2022-08-31T08:25:25.915Z,27.17
2022-08-31T08:25:36.910Z,27.16
2022-08-31T08:25:52.030Z,27.16
2022-08-31T08:26:08.017Z,27.16
2022-08-31T08:26:26.816Z,27.16
2022-08-31T08:26:39.688Z,27.16
2022-08-31T08:26:59.498Z,27.16
2022-08-31T08:27:11.963Z,27.16
2022-08-31T08:27:28.943Z,27.16
2022-08-31T08:27:47.049Z,27.16
2022-08-31T08:28:08.763Z,27.16
2022-08-31T08:28:35.962Z,27.16
2022-08-31T08:28:39.700Z,27.16
2022-08-31T08:28:48.607Z,27.16
2022-08-31T08:29:04.040Z,27.16
2022-08-31T08:29:20.281Z,27.16
2022-08-31T08:29:36.024Z,27.16
2022-08-31T08:29:52.614Z,27.16
2022-08-31T08:30:08.402Z,27.16
2022-08-31T08:30:25.129Z,27.16
2022-08-31T08:30:40.174Z,27.16
2022-08-31T08:30:57.281Z,27.16
2022-08-31T08:31:27.975Z,27.16
2022-08-31T08:31:44.606Z,27.16
2022-08-31T08:32:00.535Z,27.16
2022-08-31T08:32:17.466Z,27.16
2022-08-31T08:32:32.012Z,27.16
2022-08-31T08:32:49.769Z,27.16
2022-08-31T08:33:04.005Z,27.16
2022-08-31T08:33:21.174Z,27.16
2022-08-31T08:33:36.622Z,27.16
2022-08-31T08:33:52.905Z,27.16
2022-08-31T08:34:09.656Z,27.16
2022-08-31T08:34:31.546Z,27.16
2022-08-31T08:34:40.119Z,27.16
2022-08-31T08:34:55.963Z,27.16
2022-08-31T08:35:12.656Z,27.16
2022-08-31T08:35:28.016Z,27.16
2022-08-31T08:35:45.260Z,27.16
2022-08-31T08:36:00.214Z,27.16
2022-08-31T08:36:18.361Z,27.16
2022-08-31T08:36:32.227Z,27.16
2022-08-31T08:36:49.082Z,27.16
2022-08-31T08:37:04.714Z,27.16
2022-08-31T08:37:31.056Z,27.16
2022-08-31T08:37:57.104Z,27.16
2022-08-31T08:37:59.351Z,27.16
2022-08-31T08:38:08.390Z,27.16
2022-08-31T08:38:24.311Z,27.16
2022-08-31T08:38:40.714Z,27.16
2022-08-31T08:38:59.029Z,27.16
2022-08-31T08:39:13.999Z,27.16
2022-08-31T08:39:28.735Z,27.16
2022-08-31T08:39:43.780Z,27.16
2022-08-31T08:40:00.873Z,27.16
2022-08-31T08:40:33.425Z,27.16
2022-08-31T08:40:47.754Z,27.16
2022-08-31T08:41:04.534Z,27.16
2022-08-31T08:41:20.155Z,27.16
2022-08-31T08:41:37.119Z,27.16
2022-08-31T08:41:53.990Z,27.16
2022-08-31T08:42:07.374Z,27.16
2022-08-31T08:42:25.604Z,27.16
2022-08-31T08:42:42.438Z,27.16
2022-08-31T08:42:57.030Z,27.16
2022-08-31T08:43:11.963Z,27.16
2022-08-31T08:43:30.942Z,27.16
2022-08-31T08:43:44.103Z,27.16
2022-08-31T08:44:02.518Z,27.16
2022-08-31T08:44:18.297Z,27.16
2022-08-31T08:44:32.846Z,27.16
2022-08-31T08:44:48.474Z,27.16
2022-08-31T08:45:06.416Z,27.16
2022-08-31T08:45:24.483Z,27.17
2022-08-31T08:45:36.980Z,27.17
2022-08-31T08:45:53.614Z,27.17
2022-08-31T08:46:31.344Z,27.18
2022-08-31T08:46:34.332Z,27.18
2022-08-31T08:46:40.481Z,27.18
2022-08-31T08:46:59.497Z,27.18
2022-08-31T08:47:15.990Z,27.18
2022-08-31T08:47:38.631Z,27.18
2022-08-31T08:47:49.363Z,27.18
2022-08-31T08:48:06.669Z,27.18
2022-08-31T08:48:22.043Z,27.18
2022-08-31T08:48:38.688Z,27.19
2022-08-31T08:48:55.448Z,27.19
2022-08-31T08:49:10.806Z,27.2
2022-08-31T08:49:26.860Z,27.2
2022-08-31T08:49:41.424Z,27.2
2022-08-31T08:49:56.686Z,27.2
2022-08-31T08:50:13.555Z,27.2
2022-08-31T08:50:28.503Z,27.21
2022-08-31T08:50:46.041Z,27.21
2022-08-31T08:51:02.354Z,27.22
2022-08-31T08:51:17.947Z,27.22
2022-08-31T08:51:33.071Z,27.23
2022-08-31T08:51:50.070Z,27.23
2022-08-31T08:52:05.629Z,27.23
2022-08-31T08:52:20.461Z,27.24
2022-08-31T08:52:39.032Z,27.25
2022-08-31T08:52:53.001Z,27.25
2022-08-31T08:53:09.111Z,27.25
